EGTC

Cranfield Airport

Airport
ICAO code
EGTC
Summary
ICAO Region
EUR
ICAO Territory
Location

Cranfield, England

Serving
Cranfield
Elevation
358 ft
Coordinates
52° 4' 8" N , 0° 37' 11" W
Metar
Observation
EGTC 060920Z 26003KT 230V290 6000 NSC 00/00 Q1042
Station
Cranfield
Date/Time
2023-02-06 09:20:00
Wind direction
260°
Wind speed
03 kts
Lowest cloud amount
nil significant cloud
Temperature
0°C
Dew point
0°C
Humidity
100%
QNH
1042 hPa
Weather condition
n/a

Runways

Designator Length Width Surface Rops
18/36 620 18 ASP No/No
3/21 1799 46 ASP Yes/Yes

Airport map

Aerial View

SKYbrary Partners:

Safety knowledge contributed by: